Terminal Aerodrome Forecast
Issued by NWS Mt. Holly, NJ

Home | Current Version | Previous Version | Text Only | Print | Product List | Glossary On
Versions: 1 2 3 4 5 6 7 8 9 10 11 12 13 14 15 16 17
524
FTUS41 KPHI 251128
TAFILG
TAF
KILG 251128Z 2512/2612 22004KT P6SM VCSH SCT050 BKN100
     FM251500 VRB04KT P6SM OVC100
      TEMPO 2522/2524 -SHRA OVC040
     FM260000 07010KT P6SM OVC050
     FM260600 06010KT P6SM OVC015=

USA.gov is the U.S. government's official web portal to all federal, state and local government web resources and services.